sensor_id;sensor_type;location;lat;lon;timestamp;pressure;altitude;pressure_sealevel;temperature;humidity
41306;BME280;27051;50.376;19.152;2022-11-20T00:01:07;97851.03;;;-2.70;55.25
41306;BME280;27051;50.376;19.152;2022-11-20T00:03:34;97847.37;;;-2.69;55.12
41306;BME280;27051;50.376;19.152;2022-11-20T00:06:01;97841.56;;;-2.71;55.22
41306;BME280;27051;50.376;19.152;2022-11-20T00:08:29;97838.66;;;-2.67;55.14
41306;BME280;27051;50.376;19.152;2022-11-20T00:10:55;97843.66;;;-2.73;55.22
41306;BME280;27051;50.376;19.152;2022-11-20T00:13:20;97844.17;;;-2.79;54.99
41306;BME280;27051;50.376;19.152;2022-11-20T00:15:46;97848.61;;;-2.90;55.18
41306;BME280;27051;50.376;19.152;2022-11-20T00:18:12;97852.55;;;-2.90;55.35
41306;BME280;27051;50.376;19.152;2022-11-20T00:20:38;97855.66;;;-2.95;55.39
41306;BME280;27051;50.376;19.152;2022-11-20T00:23:03;97852.09;;;-2.69;55.40
41306;BME280;27051;50.376;19.152;2022-11-20T00:25:29;97847.38;;;-2.67;55.23
41306;BME280;27051;50.376;19.152;2022-11-20T00:27:55;97845.31;;;-2.52;55.07
41306;BME280;27051;50.376;19.152;2022-11-20T00:30:20;97845.55;;;-2.58;55.03
41306;BME280;27051;50.376;19.152;2022-11-20T00:32:46;97842.66;;;-2.62;55.02
41306;BME280;27051;50.376;19.152;2022-11-20T00:35:11;97849.45;;;-2.74;54.83
41306;BME280;27051;50.376;19.152;2022-11-20T00:37:37;97845.16;;;-2.93;54.97
41306;BME280;27051;50.376;19.152;2022-11-20T00:40:03;97848.34;;;-2.88;55.07
41306;BME280;27051;50.376;19.152;2022-11-20T00:42:30;97844.91;;;-2.94;55.05
41306;BME280;27051;50.376;19.152;2022-11-20T00:44:55;97848.83;;;-2.99;55.04
41306;BME280;27051;50.376;19.152;2022-11-20T00:47:21;97842.97;;;-3.14;55.17
41306;BME280;27051;50.376;19.152;2022-11-20T00:49:47;97846.39;;;-3.11;55.14
41306;BME280;27051;50.376;19.152;2022-11-20T00:52:12;97840.31;;;-3.19;55.13
41306;BME280;27051;50.376;19.152;2022-11-20T00:54:38;97837.67;;;-3.21;55.04
41306;BME280;27051;50.376;19.152;2022-11-20T00:57:03;97839.45;;;-3.35;54.92
41306;BME280;27051;50.376;19.152;2022-11-20T00:59:29;97834.38;;;-3.49;55.11
41306;BME280;27051;50.376;19.152;2022-11-20T01:01:55;97840.14;;;-3.52;55.12
41306;BME280;27051;50.376;19.152;2022-11-20T01:04:20;97832.30;;;-3.44;55.67
41306;BME280;27051;50.376;19.152;2022-11-20T01:06:46;97836.40;;;-3.14;55.63
41306;BME280;27051;50.376;19.152;2022-11-20T01:09:14;97826.72;;;-3.00;55.62
41306;BME280;27051;50.376;19.152;2022-11-20T01:11:41;97823.62;;;-2.92;54.95
41306;BME280;27051;50.376;19.152;2022-11-20T01:14:15;97819.83;;;-3.17;54.88
41306;BME280;27051;50.376;19.152;2022-11-20T01:16:41;97827.66;;;-3.30;54.99
41306;BME280;27051;50.376;19.152;2022-11-20T01:19:18;97821.29;;;-3.39;55.28
41306;BME280;27051;50.376;19.152;2022-11-20T01:21:43;97825.55;;;-3.33;55.39
41306;BME280;27051;50.376;19.152;2022-11-20T01:24:12;97817.65;;;-3.35;55.39
41306;BME280;27051;50.376;19.152;2022-11-20T01:26:41;97823.69;;;-3.35;55.68
41306;BME280;27051;50.376;19.152;2022-11-20T01:29:13;97820.00;;;-3.34;55.59
41306;BME280;27051;50.376;19.152;2022-11-20T01:31:42;97815.16;;;-3.57;55.58
41306;BME280;27051;50.376;19.152;2022-11-20T01:34:10;97824.86;;;-3.60;55.80
41306;BME280;27051;50.376;19.152;2022-11-20T01:36:38;97815.66;;;-3.60;56.14
41306;BME280;27051;50.376;19.152;2022-11-20T01:39:07;97811.47;;;-3.56;56.33
41306;BME280;27051;50.376;19.152;2022-11-20T01:41:39;97807.78;;;-3.60;56.51
41306;BME280;27051;50.376;19.152;2022-11-20T01:44:05;97810.59;;;-3.72;56.48
41306;BME280;27051;50.376;19.152;2022-11-20T01:46:34;97802.73;;;-3.69;56.65
41306;BME280;27051;50.376;19.152;2022-11-20T01:49:05;97803.75;;;-3.76;56.99
41306;BME280;27051;50.376;19.152;2022-11-20T01:51:45;97796.16;;;-3.69;57.18
41306;BME280;27051;50.376;19.152;2022-11-20T01:54:29;97795.79;;;-3.46;57.53
41306;BME280;27051;50.376;19.152;2022-11-20T01:56:57;97794.52;;;-3.38;57.06
41306;BME280;27051;50.376;19.152;2022-11-20T01:59:26;97800.55;;;-3.38;56.76
41306;BME280;27051;50.376;19.152;2022-11-20T02:01:54;97787.94;;;-3.38;57.16
41306;BME280;27051;50.376;19.152;2022-11-20T02:04:20;97790.36;;;-3.21;57.10
41306;BME280;27051;50.376;19.152;2022-11-20T02:07:00;97788.23;;;-3.30;56.90
41306;BME280;27051;50.376;19.152;2022-11-20T02:09:27;97785.84;;;-3.34;56.92
41306;BME280;27051;50.376;19.152;2022-11-20T02:11:54;97789.26;;;-3.38;56.93
41306;BME280;27051;50.376;19.152;2022-11-20T02:14:21;97784.29;;;-3.30;57.10
41306;BME280;27051;50.376;19.152;2022-11-20T02:16:48;97786.89;;;-3.37;56.74
41306;BME280;27051;50.376;19.152;2022-11-20T02:19:21;97793.95;;;-3.43;56.95
41306;BME280;27051;50.376;19.152;2022-11-20T02:22:14;97797.91;;;-3.40;56.87
41306;BME280;27051;50.376;19.152;2022-11-20T02:24:43;97805.52;;;-3.39;56.66
41306;BME280;27051;50.376;19.152;2022-11-20T02:27:12;97814.69;;;-3.44;56.67
41306;BME280;27051;50.376;19.152;2022-11-20T02:29:56;97812.55;;;-3.52;56.67
41306;BME280;27051;50.376;19.152;2022-11-20T02:32:31;97819.44;;;-3.46;56.64
41306;BME280;27051;50.376;19.152;2022-11-20T02:35:39;97811.98;;;-3.59;56.38
41306;BME280;27051;50.376;19.152;2022-11-20T02:37:47;97823.14;;;-3.79;56.33
41306;BME280;27051;50.376;19.152;2022-11-20T02:40:15;97827.13;;;-3.72;56.59
41306;BME280;27051;50.376;19.152;2022-11-20T02:42:40;97825.05;;;-3.69;56.64
41306;BME280;27051;50.376;19.152;2022-11-20T02:45:07;97826.14;;;-3.65;56.75
41306;BME280;27051;50.376;19.152;2022-11-20T02:47:33;97824.30;;;-3.65;56.67
41306;BME280;27051;50.376;19.152;2022-11-20T02:49:59;97825.55;;;-3.75;56.64
41306;BME280;27051;50.376;19.152;2022-11-20T02:52:25;97830.25;;;-3.77;56.87
41306;BME280;27051;50.376;19.152;2022-11-20T02:54:51;97829.66;;;-3.87;57.15
41306;BME280;27051;50.376;19.152;2022-11-20T02:57:17;97829.80;;;-3.66;57.26
41306;BME280;27051;50.376;19.152;2022-11-20T02:59:43;97828.06;;;-3.53;57.16
41306;BME280;27051;50.376;19.152;2022-11-20T03:02:08;97822.58;;;-3.44;56.88
41306;BME280;27051;50.376;19.152;2022-11-20T03:04:34;97813.64;;;-3.48;56.82
41306;BME280;27051;50.376;19.152;2022-11-20T03:07:00;97810.75;;;-3.44;56.81
41306;BME280;27051;50.376;19.152;2022-11-20T03:09:26;97814.68;;;-3.46;56.85
41306;BME280;27051;50.376;19.152;2022-11-20T03:11:51;97810.68;;;-3.57;56.75
41306;BME280;27051;50.376;19.152;2022-11-20T03:14:17;97816.50;;;-3.52;56.71
41306;BME280;27051;50.376;19.152;2022-11-20T03:16:43;97820.13;;;-3.61;56.71
41306;BME280;27051;50.376;19.152;2022-11-20T03:19:08;97821.41;;;-3.66;56.66
41306;BME280;27051;50.376;19.152;2022-11-20T03:21:34;97816.59;;;-3.77;56.66
41306;BME280;27051;50.376;19.152;2022-11-20T03:24:01;97819.38;;;-3.94;56.60
41306;BME280;27051;50.376;19.152;2022-11-20T03:26:28;97807.44;;;-4.11;56.55
41306;BME280;27051;50.376;19.152;2022-11-20T03:28:56;97814.23;;;-4.13;56.86
41306;BME280;27051;50.376;19.152;2022-11-20T03:31:37;97806.63;;;-4.15;56.68
41306;BME280;27051;50.376;19.152;2022-11-20T03:34:01;97811.39;;;-4.39;56.55
41306;BME280;27051;50.376;19.152;2022-11-20T03:36:28;97814.23;;;-4.43;56.83
41306;BME280;27051;50.376;19.152;2022-11-20T03:38:54;97815.09;;;-4.37;56.79
41306;BME280;27051;50.376;19.152;2022-11-20T03:41:23;97816.22;;;-4.57;56.61
41306;BME280;27051;50.376;19.152;2022-11-20T03:43:53;97809.37;;;-4.59;56.96
41306;BME280;27051;50.376;19.152;2022-11-20T03:46:21;97810.25;;;-4.48;56.89
41306;BME280;27051;50.376;19.152;2022-11-20T03:48:47;97810.89;;;-4.36;56.93
41306;BME280;27051;50.376;19.152;2022-11-20T03:51:19;97818.42;;;-4.17;56.62
41306;BME280;27051;50.376;19.152;2022-11-20T03:53:47;97808.97;;;-4.16;56.40
41306;BME280;27051;50.376;19.152;2022-11-20T03:56:17;97808.77;;;-4.09;56.20
41306;BME280;27051;50.376;19.152;2022-11-20T03:58:44;97812.69;;;-4.11;56.16
41306;BME280;27051;50.376;19.152;2022-11-20T04:01:15;97816.66;;;-4.06;56.00
41306;BME280;27051;50.376;19.152;2022-11-20T04:03:43;97815.29;;;-4.14;55.84
41306;BME280;27051;50.376;19.152;2022-11-20T04:06:12;97819.22;;;-4.14;55.96
41306;BME280;27051;50.376;19.152;2022-11-20T04:08:40;97818.40;;;-4.20;56.05
41306;BME280;27051;50.376;19.152;2022-11-20T04:11:19;97818.91;;;-4.18;56.17
41306;BME280;27051;50.376;19.152;2022-11-20T04:13:50;97819.14;;;-4.24;55.98
41306;BME280;27051;50.376;19.152;2022-11-20T04:16:19;97817.06;;;-4.22;56.04
41306;BME280;27051;50.376;19.152;2022-11-20T04:18:45;97820.69;;;-4.26;56.23
41306;BME280;27051;50.376;19.152;2022-11-20T04:21:11;97810.06;;;-4.11;56.33
41306;BME280;27051;50.376;19.152;2022-11-20T04:23:37;97809.14;;;-3.93;56.28
41306;BME280;27051;50.376;19.152;2022-11-20T04:26:06;97809.30;;;-4.09;55.99
41306;BME280;27051;50.376;19.152;2022-11-20T04:28:36;97808.52;;;-4.05;56.10
41306;BME280;27051;50.376;19.152;2022-11-20T04:31:10;97800.85;;;-4.14;55.73
41306;BME280;27051;50.376;19.152;2022-11-20T04:33:38;97789.73;;;-4.26;55.71
41306;BME280;27051;50.376;19.152;2022-11-20T04:36:09;97790.34;;;-4.46;55.73
41306;BME280;27051;50.376;19.152;2022-11-20T04:38:56;97784.00;;;-4.50;56.19
41306;BME280;27051;50.376;19.152;2022-11-20T04:41:29;97777.80;;;-4.42;56.06
41306;BME280;27051;50.376;19.152;2022-11-20T04:43:57;97780.44;;;-4.39;56.01
41306;BME280;27051;50.376;19.152;2022-11-20T04:46:26;97774.56;;;-4.51;55.76
41306;BME280;27051;50.376;19.152;2022-11-20T04:48:52;97776.37;;;-4.54;55.93
41306;BME280;27051;50.376;19.152;2022-11-20T04:51:18;97764.83;;;-4.53;56.08
41306;BME280;27051;50.376;19.152;2022-11-20T04:53:44;97767.43;;;-4.56;56.07
41306;BME280;27051;50.376;19.152;2022-11-20T04:56:11;97765.88;;;-4.54;56.29
41306;BME280;27051;50.376;19.152;2022-11-20T04:58:37;97763.02;;;-4.50;56.28
41306;BME280;27051;50.376;19.152;2022-11-20T05:01:06;97765.16;;;-4.47;56.19
41306;BME280;27051;50.376;19.152;2022-11-20T05:03:42;97761.53;;;-4.41;56.24
41306;BME280;27051;50.376;19.152;2022-11-20T05:06:11;97750.80;;;-4.40;55.98
41306;BME280;27051;50.376;19.152;2022-11-20T05:08:38;97748.11;;;-4.47;56.02
41306;BME280;27051;50.376;19.152;2022-11-20T05:11:07;97746.30;;;-4.44;56.17
41306;BME280;27051;50.376;19.152;2022-11-20T05:13:35;97744.12;;;-4.55;55.74
41306;BME280;27051;50.376;19.152;2022-11-20T05:16:03;97748.00;;;-4.60;55.89
41306;BME280;27051;50.376;19.152;2022-11-20T05:18:30;97749.03;;;-4.61;55.97
41306;BME280;27051;50.376;19.152;2022-11-20T05:20:59;97751.41;;;-4.60;55.83
41306;BME280;27051;50.376;19.152;2022-11-20T05:23:25;97741.45;;;-4.60;55.97
41306;BME280;27051;50.376;19.152;2022-11-20T05:25:54;97734.94;;;-4.55;56.17
41306;BME280;27051;50.376;19.152;2022-11-20T05:28:21;97735.11;;;-4.64;56.14
41306;BME280;27051;50.376;19.152;2022-11-20T05:30:48;97735.06;;;-4.69;56.25
41306;BME280;27051;50.376;19.152;2022-11-20T05:33:14;97739.56;;;-4.65;56.46
41306;BME280;27051;50.376;19.152;2022-11-20T05:35:41;97729.13;;;-4.60;56.88
41306;BME280;27051;50.376;19.152;2022-11-20T05:38:06;97736.98;;;-4.60;56.89
41306;BME280;27051;50.376;19.152;2022-11-20T05:40:32;97733.56;;;-4.63;56.94
41306;BME280;27051;50.376;19.152;2022-11-20T05:42:58;97727.20;;;-4.69;57.16
41306;BME280;27051;50.376;19.152;2022-11-20T05:45:24;97737.73;;;-4.64;57.36
41306;BME280;27051;50.376;19.152;2022-11-20T05:47:50;97729.97;;;-4.51;57.54
41306;BME280;27051;50.376;19.152;2022-11-20T05:50:16;97726.52;;;-4.57;57.27
41306;BME280;27051;50.376;19.152;2022-11-20T05:52:42;97725.36;;;-4.69;57.31
41306;BME280;27051;50.376;19.152;2022-11-20T05:55:08;97735.59;;;-4.70;57.09
41306;BME280;27051;50.376;19.152;2022-11-20T05:57:34;97736.28;;;-4.80;57.59
41306;BME280;27051;50.376;19.152;2022-11-20T06:00:00;97742.77;;;-4.60;58.15
41306;BME280;27051;50.376;19.152;2022-11-20T06:02:26;97736.08;;;-4.41;58.15
41306;BME280;27051;50.376;19.152;2022-11-20T06:04:52;97738.52;;;-4.31;57.92
41306;BME280;27051;50.376;19.152;2022-11-20T06:07:18;97734.77;;;-4.41;57.94
41306;BME280;27051;50.376;19.152;2022-11-20T06:09:43;97740.33;;;-4.37;58.05
41306;BME280;27051;50.376;19.152;2022-11-20T06:12:12;97740.09;;;-4.30;58.33
41306;BME280;27051;50.376;19.152;2022-11-20T06:14:37;97731.51;;;-4.21;58.77
41306;BME280;27051;50.376;19.152;2022-11-20T06:17:03;97733.17;;;-4.09;58.27
41306;BME280;27051;50.376;19.152;2022-11-20T06:19:29;97730.97;;;-4.23;58.13
41306;BME280;27051;50.376;19.152;2022-11-20T06:21:55;97736.80;;;-4.16;58.11
41306;BME280;27051;50.376;19.152;2022-11-20T06:24:20;97731.22;;;-4.27;58.27
41306;BME280;27051;50.376;19.152;2022-11-20T06:26:46;97738.27;;;-4.32;57.81
41306;BME280;27051;50.376;19.152;2022-11-20T06:29:12;97740.11;;;-4.28;58.28
41306;BME280;27051;50.376;19.152;2022-11-20T06:31:37;97739.98;;;-4.11;58.27
41306;BME280;27051;50.376;19.152;2022-11-20T06:34:04;97737.87;;;-4.14;58.01
41306;BME280;27051;50.376;19.152;2022-11-20T06:36:30;97746.28;;;-4.12;57.71
41306;BME280;27051;50.376;19.152;2022-11-20T06:38:56;97740.19;;;-4.18;57.86
41306;BME280;27051;50.376;19.152;2022-11-20T06:41:22;97738.84;;;-4.23;57.76
41306;BME280;27051;50.376;19.152;2022-11-20T06:43:47;97744.67;;;-4.16;57.87
41306;BME280;27051;50.376;19.152;2022-11-20T06:46:14;97731.83;;;-4.15;57.85
41306;BME280;27051;50.376;19.152;2022-11-20T06:48:41;97745.84;;;-3.99;57.70
41306;BME280;27051;50.376;19.152;2022-11-20T06:51:07;97731.98;;;-3.91;57.55
41306;BME280;27051;50.376;19.152;2022-11-20T06:53:33;97735.70;;;-3.80;57.37
41306;BME280;27051;50.376;19.152;2022-11-20T06:55:59;97727.30;;;-3.79;57.38
41306;BME280;27051;50.376;19.152;2022-11-20T06:58:29;97730.25;;;-3.71;57.22
41306;BME280;27051;50.376;19.152;2022-11-20T07:01:00;97724.22;;;-3.68;57.69
41306;BME280;27051;50.376;19.152;2022-11-20T07:03:27;97720.58;;;-3.57;57.36
41306;BME280;27051;50.376;19.152;2022-11-20T07:05:57;97721.33;;;-3.64;57.31
41306;BME280;27051;50.376;19.152;2022-11-20T07:08:24;97717.22;;;-3.45;57.39
41306;BME280;27051;50.376;19.152;2022-11-20T07:10:50;97715.35;;;-3.52;56.84
41306;BME280;27051;50.376;19.152;2022-11-20T07:13:16;97708.77;;;-3.55;56.99
41306;BME280;27051;50.376;19.152;2022-11-20T07:15:41;97711.59;;;-3.69;56.79
41306;BME280;27051;50.376;19.152;2022-11-20T07:18:07;97710.77;;;-3.77;56.72
41306;BME280;27051;50.376;19.152;2022-11-20T07:20:33;97713.66;;;-3.79;57.21
41306;BME280;27051;50.376;19.152;2022-11-20T07:22:58;97717.69;;;-3.61;57.28
41306;BME280;27051;50.376;19.152;2022-11-20T07:25:25;97707.23;;;-3.48;57.21
41306;BME280;27051;50.376;19.152;2022-11-20T07:27:52;97710.42;;;-3.38;57.31
41306;BME280;27051;50.376;19.152;2022-11-20T07:30:18;97709.38;;;-3.32;57.26
41306;BME280;27051;50.376;19.152;2022-11-20T07:32:52;97707.84;;;-3.25;57.30
41306;BME280;27051;50.376;19.152;2022-11-20T07:35:18;97704.17;;;-3.14;57.42
41306;BME280;27051;50.376;19.152;2022-11-20T07:37:45;97706.27;;;-3.14;57.42
41306;BME280;27051;50.376;19.152;2022-11-20T07:40:12;97708.67;;;-3.04;57.25
41306;BME280;27051;50.376;19.152;2022-11-20T07:42:38;97709.45;;;-3.04;57.65
41306;BME280;27051;50.376;19.152;2022-11-20T07:45:04;97709.48;;;-2.86;57.60
41306;BME280;27051;50.376;19.152;2022-11-20T07:47:36;97708.72;;;-2.76;57.59
41306;BME280;27051;50.376;19.152;2022-11-20T07:50:02;97710.82;;;-2.68;57.74
41306;BME280;27051;50.376;19.152;2022-11-20T07:52:29;97713.74;;;-2.57;57.55
41306;BME280;27051;50.376;19.152;2022-11-20T07:54:54;97717.69;;;-2.44;57.57
41306;BME280;27051;50.376;19.152;2022-11-20T07:57:20;97712.92;;;-2.37;57.76
41306;BME280;27051;50.376;19.152;2022-11-20T07:59:45;97717.92;;;-2.23;57.67
41306;BME280;27051;50.376;19.152;2022-11-20T08:02:11;97717.67;;;-2.19;57.84
41306;BME280;27051;50.376;19.152;2022-11-20T08:04:36;97717.66;;;-2.06;58.00
41306;BME280;27051;50.376;19.152;2022-11-20T08:07:02;97713.41;;;-1.99;57.98
41306;BME280;27051;50.376;19.152;2022-11-20T08:09:28;97714.70;;;-1.84;58.26
41306;BME280;27051;50.376;19.152;2022-11-20T08:11:54;97714.95;;;-1.75;58.26
41306;BME280;27051;50.376;19.152;2022-11-20T08:14:19;97713.33;;;-1.66;58.34
41306;BME280;27051;50.376;19.152;2022-11-20T08:16:47;97716.73;;;-1.52;58.22
41306;BME280;27051;50.376;19.152;2022-11-20T08:19:15;97712.23;;;-1.49;58.24
41306;BME280;27051;50.376;19.152;2022-11-20T08:21:44;97721.37;;;-1.29;58.21
41306;BME280;27051;50.376;19.152;2022-11-20T08:24:10;97715.75;;;-1.15;58.42
41306;BME280;27051;50.376;19.152;2022-11-20T08:26:36;97719.89;;;-0.96;58.29
41306;BME280;27051;50.376;19.152;2022-11-20T08:29:04;97718.27;;;-0.94;58.21
41306;BME280;27051;50.376;19.152;2022-11-20T08:31:30;97719.19;;;-0.70;58.23
41306;BME280;27051;50.376;19.152;2022-11-20T08:33:56;97724.39;;;-0.59;58.06
41306;BME280;27051;50.376;19.152;2022-11-20T08:36:23;97732.25;;;-0.52;57.96
41306;BME280;27051;50.376;19.152;2022-11-20T08:38:51;97724.61;;;-0.51;58.00
41306;BME280;27051;50.376;19.152;2022-11-20T08:41:20;97724.05;;;-0.48;58.10
41306;BME280;27051;50.376;19.152;2022-11-20T08:43:47;97729.23;;;-0.35;58.32
41306;BME280;27051;50.376;19.152;2022-11-20T08:46:13;97733.09;;;-0.22;58.51
41306;BME280;27051;50.376;19.152;2022-11-20T08:48:38;97731.56;;;0.01;58.46
41306;BME280;27051;50.376;19.152;2022-11-20T08:51:05;97735.59;;;0.20;58.75
41306;BME280;27051;50.376;19.152;2022-11-20T08:53:31;97734.60;;;0.40;58.25
41306;BME280;27051;50.376;19.152;2022-11-20T08:55:57;97737.88;;;0.53;58.10
41306;BME280;27051;50.376;19.152;2022-11-20T08:58:24;97738.13;;;0.57;57.78
41306;BME280;27051;50.376;19.152;2022-11-20T09:00:51;97740.26;;;0.55;57.42
41306;BME280;27051;50.376;19.152;2022-11-20T09:03:16;97736.67;;;0.43;57.50
41306;BME280;27051;50.376;19.152;2022-11-20T09:05:42;97732.17;;;0.46;57.50
41306;BME280;27051;50.376;19.152;2022-11-20T09:08:08;97726.38;;;0.44;57.80
41306;BME280;27051;50.376;19.152;2022-11-20T09:10:33;97734.73;;;0.54;57.74
41306;BME280;27051;50.376;19.152;2022-11-20T09:13:00;97724.96;;;0.73;57.92
41306;BME280;27051;50.376;19.152;2022-11-20T09:15:26;97719.51;;;0.86;57.81
41306;BME280;27051;50.376;19.152;2022-11-20T09:18:00;97715.61;;;1.02;57.42
41306;BME280;27051;50.376;19.152;2022-11-20T09:20:24;97711.37;;;1.01;57.29
41306;BME280;27051;50.376;19.152;2022-11-20T09:22:51;97717.16;;;1.03;56.96
41306;BME280;27051;50.376;19.152;2022-11-20T09:25:17;97720.02;;;1.10;57.27
41306;BME280;27051;50.376;19.152;2022-11-20T09:27:43;97714.42;;;1.30;57.34
41306;BME280;27051;50.376;19.152;2022-11-20T09:30:10;97714.44;;;1.46;57.11
41306;BME280;27051;50.376;19.152;2022-11-20T09:32:38;97713.45;;;1.59;57.16
41306;BME280;27051;50.376;19.152;2022-11-20T09:35:05;97714.27;;;1.73;57.12
41306;BME280;27051;50.376;19.152;2022-11-20T09:37:32;97708.33;;;1.81;56.62
41306;BME280;27051;50.376;19.152;2022-11-20T09:39:57;97703.11;;;1.76;56.87
41306;BME280;27051;50.376;19.152;2022-11-20T09:50:43;97706.37;;;1.87;56.95
41306;BME280;27051;50.376;19.152;2022-11-20T09:56:03;97696.91;;;1.97;56.72
41306;BME280;27051;50.376;19.152;2022-11-20T09:58:44;97695.05;;;1.98;56.71
41306;BME280;27051;50.376;19.152;2022-11-20T10:01:19;97696.59;;;2.01;56.46
41306;BME280;27051;50.376;19.152;2022-11-20T10:04:10;97693.94;;;2.01;56.71
41306;BME280;27051;50.376;19.152;2022-11-20T10:07:27;97681.02;;;2.11;56.95
41306;BME280;27051;50.376;19.152;2022-11-20T10:12:19;97680.99;;;2.27;56.69
41306;BME280;27051;50.376;19.152;2022-11-20T10:18:35;97680.49;;;2.53;56.59
41306;BME280;27051;50.376;19.152;2022-11-20T10:21:30;97682.34;;;2.66;56.75
41306;BME280;27051;50.376;19.152;2022-11-20T10:29:42;97661.63;;;2.79;56.63
41306;BME280;27051;50.376;19.152;2022-11-20T10:32:15;97662.95;;;2.79;56.51
41306;BME280;27051;50.376;19.152;2022-11-20T10:34:50;97665.03;;;2.82;56.52
41306;BME280;27051;50.376;19.152;2022-11-20T10:37:22;97658.57;;;2.86;56.55
41306;BME280;27051;50.376;19.152;2022-11-20T10:40:20;97661.10;;;2.80;56.20
41306;BME280;27051;50.376;19.152;2022-11-20T10:43:13;97650.17;;;2.81;56.10
41306;BME280;27051;50.376;19.152;2022-11-20T10:48:30;97644.31;;;2.82;56.41
41306;BME280;27051;50.376;19.152;2022-11-20T10:56:56;97629.31;;;2.89;56.83
41306;BME280;27051;50.376;19.152;2022-11-20T10:59:52;97628.48;;;3.02;56.82
41306;BME280;27051;50.376;19.152;2022-11-20T11:02:21;97632.00;;;3.11;56.49
41306;BME280;27051;50.376;19.152;2022-11-20T11:07:45;97625.59;;;3.01;55.39
41306;BME280;27051;50.376;19.152;2022-11-20T11:10:16;97621.23;;;2.94;55.73
41306;BME280;27051;50.376;19.152;2022-11-20T11:12:53;97627.64;;;2.93;55.65
41306;BME280;27051;50.376;19.152;2022-11-20T11:15:28;97631.73;;;2.88;55.47
41306;BME280;27051;50.376;19.152;2022-11-20T11:18:04;97628.22;;;2.90;55.91
41306;BME280;27051;50.376;19.152;2022-11-20T11:20:30;97628.80;;;3.12;55.74
41306;BME280;27051;50.376;19.152;2022-11-20T11:22:58;97624.62;;;3.31;55.40
41306;BME280;27051;50.376;19.152;2022-11-20T11:25:30;97623.79;;;3.44;55.38
41306;BME280;27051;50.376;19.152;2022-11-20T11:28:01;97623.14;;;3.69;55.05
41306;BME280;27051;50.376;19.152;2022-11-20T11:30:30;97617.16;;;3.95;54.80
41306;BME280;27051;50.376;19.152;2022-11-20T11:33:17;97612.48;;;4.21;54.54
41306;BME280;27051;50.376;19.152;2022-11-20T11:36:03;97619.33;;;4.33;53.76
41306;BME280;27051;50.376;19.152;2022-11-20T11:38:34;97613.38;;;4.36;53.50
41306;BME280;27051;50.376;19.152;2022-11-20T11:41:02;97613.89;;;4.55;54.35
41306;BME280;27051;50.376;19.152;2022-11-20T11:43:34;97622.28;;;4.77;54.01
41306;BME280;27051;50.376;19.152;2022-11-20T11:46:02;97620.66;;;4.96;54.29
41306;BME280;27051;50.376;19.152;2022-11-20T11:48:30;97610.36;;;5.44;53.68
41306;BME280;27051;50.376;19.152;2022-11-20T11:50:55;97594.34;;;6.81;53.12
41306;BME280;27051;50.376;19.152;2022-11-20T11:53:23;97597.00;;;7.29;52.04
41306;BME280;27051;50.376;19.152;2022-11-20T11:56:02;97590.53;;;7.30;51.71
41306;BME280;27051;50.376;19.152;2022-11-20T12:06:44;97571.45;;;6.44;51.74
41306;BME280;27051;50.376;19.152;2022-11-20T12:09:11;97560.33;;;6.69;51.44
41306;BME280;27051;50.376;19.152;2022-11-20T12:11:46;97562.55;;;6.88;51.05
41306;BME280;27051;50.376;19.152;2022-11-20T12:14:37;97565.08;;;7.05;50.94
41306;BME280;27051;50.376;19.152;2022-11-20T12:17:03;97566.58;;;8.46;49.16
41306;BME280;27051;50.376;19.152;2022-11-20T12:19:33;97580.09;;;8.07;48.86
41306;BME280;27051;50.376;19.152;2022-11-20T12:28:17;97571.06;;;6.54;50.67
41306;BME280;27051;50.376;19.152;2022-11-20T12:31:41;97564.41;;;6.24;50.98
41306;BME280;27051;50.376;19.152;2022-11-20T12:33:44;97563.91;;;6.01;51.27
41306;BME280;27051;50.376;19.152;2022-11-20T12:42:16;97524.60;;;6.25;51.07
41306;BME280;27051;50.376;19.152;2022-11-20T12:45:06;97524.60;;;6.25;51.07
41306;BME280;27051;50.376;19.152;2022-11-20T12:56:37;97499.43;;;9.71;47.08
41306;BME280;27051;50.376;19.152;2022-11-20T12:59:28;97499.27;;;9.10;47.66
41306;BME280;27051;50.376;19.152;2022-11-20T13:05:03;97500.76;;;8.33;47.77
41306;BME280;27051;50.376;19.152;2022-11-20T13:07:41;97502.13;;;8.09;47.63
41306;BME280;27051;50.376;19.152;2022-11-20T13:10:18;97511.61;;;7.63;48.09
41306;BME280;27051;50.376;19.152;2022-11-20T13:12:57;97503.82;;;7.46;47.64
41306;BME280;27051;50.376;19.152;2022-11-20T13:15:45;97495.13;;;7.67;48.33
41306;BME280;27051;50.376;19.152;2022-11-20T13:18:13;97493.22;;;8.17;48.00
41306;BME280;27051;50.376;19.152;2022-11-20T13:20:45;97493.87;;;8.20;47.51
41306;BME280;27051;50.376;19.152;2022-11-20T13:23:11;97485.03;;;8.72;47.06
41306;BME280;27051;50.376;19.152;2022-11-20T13:25:48;97482.73;;;9.30;46.98
41306;BME280;27051;50.376;19.152;2022-11-20T13:30:50;97481.20;;;10.57;45.38
41306;BME280;27051;50.376;19.152;2022-11-20T13:33:37;97479.08;;;11.19;45.31
41306;BME280;27051;50.376;19.152;2022-11-20T13:36:20;97472.81;;;12.07;45.23
41306;BME280;27051;50.376;19.152;2022-11-20T13:38:51;97471.48;;;12.54;44.30
41306;BME280;27051;50.376;19.152;2022-11-20T13:41:33;97468.14;;;12.47;43.85
41306;BME280;27051;50.376;19.152;2022-11-20T13:46:41;97472.98;;;10.89;44.33
41306;BME280;27051;50.376;19.152;2022-11-20T13:49:55;97471.64;;;10.89;44.63
41306;BME280;27051;50.376;19.152;2022-11-20T13:51:50;97467.89;;;10.10;44.53
41306;BME280;27051;50.376;19.152;2022-11-20T13:54:32;97466.06;;;9.15;44.79
41306;BME280;27051;50.376;19.152;2022-11-20T13:57:14;97459.70;;;8.29;45.10
41306;BME280;27051;50.376;19.152;2022-11-20T14:00:14;97465.14;;;7.55;45.75
41306;BME280;27051;50.376;19.152;2022-11-20T14:02:43;97467.89;;;6.77;46.10
41306;BME280;27051;50.376;19.152;2022-11-20T14:05:19;97471.32;;;6.02;46.59
41306;BME280;27051;50.376;19.152;2022-11-20T14:07:47;97469.10;;;5.44;46.99
41306;BME280;27051;50.376;19.152;2022-11-20T14:10:22;97474.88;;;4.99;47.47
41306;BME280;27051;50.376;19.152;2022-11-20T14:12:50;97477.92;;;4.63;47.81
41306;BME280;27051;50.376;19.152;2022-11-20T14:15:31;97470.72;;;4.29;48.19
41306;BME280;27051;50.376;19.152;2022-11-20T14:17:59;97474.84;;;3.98;48.38